sensor_id;sensor_type;location;lat;lon;timestamp;P1;durP1;ratioP1;P2;durP2;ratioP2
75512;SDS011;64090;49.770;18.760;2023-08-20T00:00:33;13.60;;;12.00;;
75512;SDS011;64090;49.770;18.760;2023-08-20T00:04:22;15.50;;;12.90;;
75512;SDS011;64090;49.770;18.760;2023-08-20T00:08:00;15.00;;;11.90;;
75512;SDS011;64090;49.770;18.760;2023-08-20T00:11:47;13.00;;;11.00;;
75512;SDS011;64090;49.770;18.760;2023-08-20T00:15:11;13.60;;;11.80;;
75512;SDS011;64090;49.770;18.760;2023-08-20T00:18:59;13.90;;;12.40;;
75512;SDS011;64090;49.770;18.760;2023-08-20T00:22:36;12.40;;;11.00;;
75512;SDS011;64090;49.770;18.760;2023-08-20T00:26:06;13.50;;;11.40;;
75512;SDS011;64090;49.770;18.760;2023-08-20T00:29:52;13.20;;;11.80;;
75512;SDS011;64090;49.770;18.760;2023-08-20T00:33:18;13.90;;;11.70;;
75512;SDS011;64090;49.770;18.760;2023-08-20T00:36:59;15.00;;;13.50;;
75512;SDS011;64090;49.770;18.760;2023-08-20T00:40:30;14.60;;;12.30;;
75512;SDS011;64090;49.770;18.760;2023-08-20T00:43:57;14.50;;;12.70;;
75512;SDS011;64090;49.770;18.760;2023-08-20T00:47:24;14.40;;;12.50;;
75512;SDS011;64090;49.770;18.760;2023-08-20T00:50:50;17.60;;;12.80;;
75512;SDS011;64090;49.770;18.760;2023-08-20T00:54:17;14.40;;;12.90;;
75512;SDS011;64090;49.770;18.760;2023-08-20T00:58:06;14.70;;;13.20;;
75512;SDS011;64090;49.770;18.760;2023-08-20T01:01:48;13.20;;;11.70;;
75512;SDS011;64090;49.770;18.760;2023-08-20T01:05:33;14.10;;;12.60;;
75512;SDS011;64090;49.770;18.760;2023-08-20T01:09:57;13.10;;;11.60;;
75512;SDS011;64090;49.770;18.760;2023-08-20T01:13:13;13.10;;;11.50;;
75512;SDS011;64090;49.770;18.760;2023-08-20T01:16:43;12.70;;;11.20;;
75512;SDS011;64090;49.770;18.760;2023-08-20T01:20:30;15.60;;;13.70;;
75512;SDS011;64090;49.770;18.760;2023-08-20T01:28:40;13.90;;;12.50;;
75512;SDS011;64090;49.770;18.760;2023-08-20T01:32:13;12.80;;;11.00;;
75512;SDS011;64090;49.770;18.760;2023-08-20T01:35:53;12.90;;;11.60;;
75512;SDS011;64090;49.770;18.760;2023-08-20T01:39:17;13.10;;;11.70;;
75512;SDS011;64090;49.770;18.760;2023-08-20T01:42:49;12.70;;;11.30;;
75512;SDS011;64090;49.770;18.760;2023-08-20T01:46:23;13.00;;;11.10;;
75512;SDS011;64090;49.770;18.760;2023-08-20T01:49:54;13.60;;;11.30;;
75512;SDS011;64090;49.770;18.760;2023-08-20T01:53:24;13.80;;;11.30;;
75512;SDS011;64090;49.770;18.760;2023-08-20T01:56:49;12.10;;;10.70;;
75512;SDS011;64090;49.770;18.760;2023-08-20T02:00:31;13.20;;;11.10;;
75512;SDS011;64090;49.770;18.760;2023-08-20T02:04:01;12.70;;;11.30;;
75512;SDS011;64090;49.770;18.760;2023-08-20T02:07:44;14.00;;;12.60;;
75512;SDS011;64090;49.770;18.760;2023-08-20T02:11:30;13.10;;;11.30;;
75512;SDS011;64090;49.770;18.760;2023-08-20T02:15:21;13.90;;;11.40;;
75512;SDS011;64090;49.770;18.760;2023-08-20T02:18:50;13.50;;;11.40;;
75512;SDS011;64090;49.770;18.760;2023-08-20T02:22:40;13.10;;;11.50;;
75512;SDS011;64090;49.770;18.760;2023-08-20T02:26:05;14.00;;;12.60;;
75512;SDS011;64090;49.770;18.760;2023-08-20T02:29:41;18.10;;;13.10;;
75512;SDS011;64090;49.770;18.760;2023-08-20T02:33:20;14.20;;;11.70;;
75512;SDS011;64090;49.770;18.760;2023-08-20T02:37:07;13.60;;;11.40;;
75512;SDS011;64090;49.770;18.760;2023-08-20T02:40:51;13.70;;;11.80;;
75512;SDS011;64090;49.770;18.760;2023-08-20T02:44:26;14.20;;;11.50;;
75512;SDS011;64090;49.770;18.760;2023-08-20T02:48:02;12.90;;;11.30;;
75512;SDS011;64090;49.770;18.760;2023-08-20T02:51:36;13.40;;;11.30;;
75512;SDS011;64090;49.770;18.760;2023-08-20T02:55:15;12.80;;;10.90;;
75512;SDS011;64090;49.770;18.760;2023-08-20T02:59:12;12.70;;;11.20;;
75512;SDS011;64090;49.770;18.760;2023-08-20T03:02:39;14.60;;;12.30;;
75512;SDS011;64090;49.770;18.760;2023-08-20T03:06:34;12.60;;;10.70;;
75512;SDS011;64090;49.770;18.760;2023-08-20T03:10:04;13.80;;;12.00;;
75512;SDS011;64090;49.770;18.760;2023-08-20T03:13:51;12.20;;;10.60;;
75512;SDS011;64090;49.770;18.760;2023-08-20T03:17:37;13.20;;;11.30;;
75512;SDS011;64090;49.770;18.760;2023-08-20T03:21:15;15.90;;;13.50;;
75512;SDS011;64090;49.770;18.760;2023-08-20T03:24:45;14.20;;;11.90;;
75512;SDS011;64090;49.770;18.760;2023-08-20T03:28:07;13.90;;;12.10;;
75512;SDS011;64090;49.770;18.760;2023-08-20T03:31:38;12.80;;;10.80;;
75512;SDS011;64090;49.770;18.760;2023-08-20T03:35:13;12.70;;;11.40;;
75512;SDS011;64090;49.770;18.760;2023-08-20T03:38:43;13.00;;;10.20;;
75512;SDS011;64090;49.770;18.760;2023-08-20T03:42:15;13.00;;;11.40;;
75512;SDS011;64090;49.770;18.760;2023-08-20T03:45:44;13.80;;;11.10;;
75512;SDS011;64090;49.770;18.760;2023-08-20T03:49:19;14.30;;;12.10;;
75512;SDS011;64090;49.770;18.760;2023-08-20T03:56:35;11.90;;;10.20;;
75512;SDS011;64090;49.770;18.760;2023-08-20T04:00:05;12.50;;;10.60;;
75512;SDS011;64090;49.770;18.760;2023-08-20T04:03:47;13.60;;;11.80;;
75512;SDS011;64090;49.770;18.760;2023-08-20T04:07:17;13.60;;;11.70;;
75512;SDS011;64090;49.770;18.760;2023-08-20T04:10:44;13.20;;;11.50;;
75512;SDS011;64090;49.770;18.760;2023-08-20T04:14:29;13.40;;;12.10;;
75512;SDS011;64090;49.770;18.760;2023-08-20T04:17:55;14.20;;;11.40;;
75512;SDS011;64090;49.770;18.760;2023-08-20T04:22:22;13.70;;;11.80;;
75512;SDS011;64090;49.770;18.760;2023-08-20T04:26:26;12.50;;;11.20;;
75512;SDS011;64090;49.770;18.760;2023-08-20T04:29:52;12.00;;;10.80;;
75512;SDS011;64090;49.770;18.760;2023-08-20T04:33:26;11.80;;;10.60;;
75512;SDS011;64090;49.770;18.760;2023-08-20T04:36:48;10.60;;;9.50;;
75512;SDS011;64090;49.770;18.760;2023-08-20T04:40:09;10.40;;;9.40;;
75512;SDS011;64090;49.770;18.760;2023-08-20T04:43:59;12.30;;;10.20;;
75512;SDS011;64090;49.770;18.760;2023-08-20T04:50:21;10.80;;;9.60;;
75512;SDS011;64090;49.770;18.760;2023-08-20T04:56:54;11.40;;;10.20;;
75512;SDS011;64090;49.770;18.760;2023-08-20T05:00:22;10.90;;;9.50;;
75512;SDS011;64090;49.770;18.760;2023-08-20T05:03:48;10.60;;;9.50;;
75512;SDS011;64090;49.770;18.760;2023-08-20T05:07:01;12.50;;;11.20;;
75512;SDS011;64090;49.770;18.760;2023-08-20T05:10:06;11.20;;;10.00;;
75512;SDS011;64090;49.770;18.760;2023-08-20T05:13:32;10.70;;;9.60;;
75512;SDS011;64090;49.770;18.760;2023-08-20T05:16:45;10.20;;;9.20;;
75512;SDS011;64090;49.770;18.760;2023-08-20T05:19:55;11.40;;;10.30;;
75512;SDS011;64090;49.770;18.760;2023-08-20T05:23:17;10.90;;;9.90;;
75512;SDS011;64090;49.770;18.760;2023-08-20T05:26:42;10.60;;;9.60;;
75512;SDS011;64090;49.770;18.760;2023-08-20T05:30:08;10.80;;;9.80;;
75512;SDS011;64090;49.770;18.760;2023-08-20T05:33:22;11.10;;;10.00;;
75512;SDS011;64090;49.770;18.760;2023-08-20T05:36:26;10.10;;;9.10;;
75512;SDS011;64090;49.770;18.760;2023-08-20T05:39:30;11.20;;;10.10;;
75512;SDS011;64090;49.770;18.760;2023-08-20T05:42:42;10.10;;;9.10;;
75512;SDS011;64090;49.770;18.760;2023-08-20T05:45:46;10.30;;;9.20;;
75512;SDS011;64090;49.770;18.760;2023-08-20T05:48:52;11.00;;;8.90;;
75512;SDS011;64090;49.770;18.760;2023-08-20T05:52:10;10.20;;;9.30;;
75512;SDS011;64090;49.770;18.760;2023-08-20T05:55:15;9.10;;;8.20;;
75512;SDS011;64090;49.770;18.760;2023-08-20T05:58:21;9.50;;;8.60;;
75512;SDS011;64090;49.770;18.760;2023-08-20T06:01:52;9.60;;;8.50;;
75512;SDS011;64090;49.770;18.760;2023-08-20T06:05:05;10.20;;;9.30;;
75512;SDS011;64090;49.770;18.760;2023-08-20T06:08:11;9.70;;;8.70;;
75512;SDS011;64090;49.770;18.760;2023-08-20T06:14:31;9.50;;;8.50;;
75512;SDS011;64090;49.770;18.760;2023-08-20T06:17:57;10.50;;;9.40;;
75512;SDS011;64090;49.770;18.760;2023-08-20T06:21:01;9.60;;;8.70;;
75512;SDS011;64090;49.770;18.760;2023-08-20T06:24:04;9.80;;;8.90;;
75512;SDS011;64090;49.770;18.760;2023-08-20T06:27:09;9.70;;;8.80;;
75512;SDS011;64090;49.770;18.760;2023-08-20T06:30:12;10.80;;;8.90;;
75512;SDS011;64090;49.770;18.760;2023-08-20T06:33:18;9.90;;;9.00;;
75512;SDS011;64090;49.770;18.760;2023-08-20T06:36:41;10.40;;;8.90;;
75512;SDS011;64090;49.770;18.760;2023-08-20T06:39:45;9.30;;;8.30;;
75512;SDS011;64090;49.770;18.760;2023-08-20T06:42:48;9.10;;;8.30;;
75512;SDS011;64090;49.770;18.760;2023-08-20T06:45:54;9.90;;;8.90;;
75512;SDS011;64090;49.770;18.760;2023-08-20T06:48:58;8.30;;;7.60;;
75512;SDS011;64090;49.770;18.760;2023-08-20T06:52:02;8.90;;;8.00;;
75512;SDS011;64090;49.770;18.760;2023-08-20T06:58:16;8.90;;;7.70;;
75512;SDS011;64090;49.770;18.760;2023-08-20T07:01:23;9.20;;;7.90;;
75512;SDS011;64090;49.770;18.760;2023-08-20T07:04:29;13.40;;;9.10;;
75512;SDS011;64090;49.770;18.760;2023-08-20T07:07:41;7.60;;;6.80;;
75512;SDS011;64090;49.770;18.760;2023-08-20T07:10:45;9.20;;;8.20;;
75512;SDS011;64090;49.770;18.760;2023-08-20T07:13:55;8.40;;;7.50;;
75512;SDS011;64090;49.770;18.760;2023-08-20T07:17:00;8.70;;;7.90;;
75512;SDS011;64090;49.770;18.760;2023-08-20T07:20:07;9.10;;;8.20;;
75512;SDS011;64090;49.770;18.760;2023-08-20T07:23:40;10.30;;;9.10;;
75512;SDS011;64090;49.770;18.760;2023-08-20T07:26:47;9.40;;;8.40;;
75512;SDS011;64090;49.770;18.760;2023-08-20T07:30:13;7.80;;;7.00;;
75512;SDS011;64090;49.770;18.760;2023-08-20T07:33:17;10.20;;;9.10;;
75512;SDS011;64090;49.770;18.760;2023-08-20T07:36:41;8.20;;;7.40;;
75512;SDS011;64090;49.770;18.760;2023-08-20T07:39:49;9.50;;;8.60;;
75512;SDS011;64090;49.770;18.760;2023-08-20T07:42:53;10.70;;;9.60;;
75512;SDS011;64090;49.770;18.760;2023-08-20T07:49:08;10.60;;;9.70;;
75512;SDS011;64090;49.770;18.760;2023-08-20T07:52:32;9.30;;;8.40;;
75512;SDS011;64090;49.770;18.760;2023-08-20T07:55:45;9.90;;;9.00;;
75512;SDS011;64090;49.770;18.760;2023-08-20T07:59:06;10.00;;;7.80;;
75512;SDS011;64090;49.770;18.760;2023-08-20T08:02:11;9.70;;;8.50;;
75512;SDS011;64090;49.770;18.760;2023-08-20T08:05:29;10.40;;;8.40;;
75512;SDS011;64090;49.770;18.760;2023-08-20T08:08:37;9.50;;;8.60;;
75512;SDS011;64090;49.770;18.760;2023-08-20T08:14:55;7.50;;;6.70;;
75512;SDS011;64090;49.770;18.760;2023-08-20T08:18:17;9.10;;;8.30;;
75512;SDS011;64090;49.770;18.760;2023-08-20T08:21:21;9.70;;;8.70;;
75512;SDS011;64090;49.770;18.760;2023-08-20T08:24:30;9.80;;;7.90;;
75512;SDS011;64090;49.770;18.760;2023-08-20T08:27:35;9.70;;;8.60;;
75512;SDS011;64090;49.770;18.760;2023-08-20T08:31:13;12.20;;;11.00;;
75512;SDS011;64090;49.770;18.760;2023-08-20T08:34:37;10.10;;;9.20;;
75512;SDS011;64090;49.770;18.760;2023-08-20T08:37:43;8.30;;;7.50;;
75512;SDS011;64090;49.770;18.760;2023-08-20T08:41:04;10.70;;;9.60;;
75512;SDS011;64090;49.770;18.760;2023-08-20T08:44:53;8.90;;;8.10;;
75512;SDS011;64090;49.770;18.760;2023-08-20T08:48:00;10.80;;;9.50;;
75512;SDS011;64090;49.770;18.760;2023-08-20T08:51:10;9.80;;;8.90;;
75512;SDS011;64090;49.770;18.760;2023-08-20T08:54:28;9.60;;;8.60;;
75512;SDS011;64090;49.770;18.760;2023-08-20T08:57:35;10.30;;;9.20;;
75512;SDS011;64090;49.770;18.760;2023-08-20T09:00:57;9.50;;;8.50;;
75512;SDS011;64090;49.770;18.760;2023-08-20T09:04:25;10.20;;;9.20;;
75512;SDS011;64090;49.770;18.760;2023-08-20T09:07:34;13.20;;;11.90;;
75512;SDS011;64090;49.770;18.760;2023-08-20T09:10:38;10.90;;;9.80;;
75512;SDS011;64090;49.770;18.760;2023-08-20T09:13:45;10.30;;;9.30;;
75512;SDS011;64090;49.770;18.760;2023-08-20T09:16:47;9.70;;;8.70;;
75512;SDS011;64090;49.770;18.760;2023-08-20T09:20:13;10.70;;;9.50;;
75512;SDS011;64090;49.770;18.760;2023-08-20T09:23:18;8.30;;;7.40;;
75512;SDS011;64090;49.770;18.760;2023-08-20T09:29:32;9.20;;;8.40;;
75512;SDS011;64090;49.770;18.760;2023-08-20T09:33:11;9.50;;;8.60;;
75512;SDS011;64090;49.770;18.760;2023-08-20T09:36:16;9.00;;;7.90;;
75512;SDS011;64090;49.770;18.760;2023-08-20T09:39:19;8.10;;;7.30;;
75512;SDS011;64090;49.770;18.760;2023-08-20T09:45:51;9.80;;;8.80;;
75512;SDS011;64090;49.770;18.760;2023-08-20T09:48:56;8.50;;;7.70;;
75512;SDS011;64090;49.770;18.760;2023-08-20T09:52:06;9.30;;;8.30;;
75512;SDS011;64090;49.770;18.760;2023-08-20T09:55:20;9.20;;;8.30;;
75512;SDS011;64090;49.770;18.760;2023-08-20T09:58:23;9.20;;;8.30;;
75512;SDS011;64090;49.770;18.760;2023-08-20T10:01:42;8.40;;;7.50;;
75512;SDS011;64090;49.770;18.760;2023-08-20T10:05:06;8.40;;;7.60;;
75512;SDS011;64090;49.770;18.760;2023-08-20T10:08:28;8.50;;;7.70;;
75512;SDS011;64090;49.770;18.760;2023-08-20T10:11:35;9.30;;;8.40;;
75512;SDS011;64090;49.770;18.760;2023-08-20T10:14:40;9.50;;;8.10;;
75512;SDS011;64090;49.770;18.760;2023-08-20T10:17:46;9.60;;;8.60;;
75512;SDS011;64090;49.770;18.760;2023-08-20T10:20:52;9.00;;;8.10;;
75512;SDS011;64090;49.770;18.760;2023-08-20T10:27:10;9.40;;;8.50;;
75512;SDS011;64090;49.770;18.760;2023-08-20T10:30:24;8.90;;;8.10;;
75512;SDS011;64090;49.770;18.760;2023-08-20T10:33:28;8.80;;;7.90;;
75512;SDS011;64090;49.770;18.760;2023-08-20T10:36:33;9.70;;;8.30;;
75512;SDS011;64090;49.770;18.760;2023-08-20T10:39:43;8.90;;;8.00;;
75512;SDS011;64090;49.770;18.760;2023-08-20T10:43:01;9.60;;;8.70;;
75512;SDS011;64090;49.770;18.760;2023-08-20T10:46:10;7.90;;;7.10;;
75512;SDS011;64090;49.770;18.760;2023-08-20T10:49:18;8.10;;;7.30;;
75512;SDS011;64090;49.770;18.760;2023-08-20T10:52:31;8.30;;;7.50;;
75512;SDS011;64090;49.770;18.760;2023-08-20T10:55:35;7.60;;;6.60;;
75512;SDS011;64090;49.770;18.760;2023-08-20T10:58:46;7.70;;;7.00;;
75512;SDS011;64090;49.770;18.760;2023-08-20T11:01:54;8.30;;;7.50;;
75512;SDS011;64090;49.770;18.760;2023-08-20T11:05:26;8.70;;;7.70;;
75512;SDS011;64090;49.770;18.760;2023-08-20T11:08:28;9.10;;;8.30;;
75512;SDS011;64090;49.770;18.760;2023-08-20T11:11:52;7.50;;;6.70;;
75512;SDS011;64090;49.770;18.760;2023-08-20T11:15:18;9.10;;;7.70;;
75512;SDS011;64090;49.770;18.760;2023-08-20T11:19:21;8.70;;;7.90;;
75512;SDS011;64090;49.770;18.760;2023-08-20T11:22:33;7.10;;;6.40;;
75512;SDS011;64090;49.770;18.760;2023-08-20T11:25:41;8.10;;;7.40;;
75512;SDS011;64090;49.770;18.760;2023-08-20T11:28:45;7.40;;;6.70;;
75512;SDS011;64090;49.770;18.760;2023-08-20T11:32:08;7.20;;;6.60;;
75512;SDS011;64090;49.770;18.760;2023-08-20T11:35:30;6.80;;;6.10;;
75512;SDS011;64090;49.770;18.760;2023-08-20T11:38:53;5.90;;;5.30;;
75512;SDS011;64090;49.770;18.760;2023-08-20T11:42:12;6.40;;;5.80;;
75512;SDS011;64090;49.770;18.760;2023-08-20T11:45:22;6.00;;;5.10;;
75512;SDS011;64090;49.770;18.760;2023-08-20T11:49:03;7.50;;;6.80;;
75512;SDS011;64090;49.770;18.760;2023-08-20T11:52:07;7.30;;;6.60;;
75512;SDS011;64090;49.770;18.760;2023-08-20T11:55:12;8.20;;;7.10;;
75512;SDS011;64090;49.770;18.760;2023-08-20T11:58:18;7.40;;;6.50;;
75512;SDS011;64090;49.770;18.760;2023-08-20T12:01:43;7.20;;;6.50;;
75512;SDS011;64090;49.770;18.760;2023-08-20T12:05:12;7.70;;;7.00;;
75512;SDS011;64090;49.770;18.760;2023-08-20T12:08:38;8.10;;;7.40;;
75512;SDS011;64090;49.770;18.760;2023-08-20T12:12:00;8.80;;;7.00;;
75512;SDS011;64090;49.770;18.760;2023-08-20T12:15:05;7.80;;;7.00;;
75512;SDS011;64090;49.770;18.760;2023-08-20T12:18:11;7.00;;;5.60;;
75512;SDS011;64090;49.770;18.760;2023-08-20T12:21:24;7.00;;;6.30;;
75512;SDS011;64090;49.770;18.760;2023-08-20T12:24:46;7.90;;;7.10;;
75512;SDS011;64090;49.770;18.760;2023-08-20T12:28:29;8.30;;;7.50;;
75512;SDS011;64090;49.770;18.760;2023-08-20T12:31:35;7.40;;;6.70;;
75512;SDS011;64090;49.770;18.760;2023-08-20T12:34:42;7.50;;;6.60;;
75512;SDS011;64090;49.770;18.760;2023-08-20T12:38:12;7.80;;;7.00;;
75512;SDS011;64090;49.770;18.760;2023-08-20T12:41:16;7.60;;;6.90;;
75512;SDS011;64090;49.770;18.760;2023-08-20T12:44:21;8.40;;;7.50;;
75512;SDS011;64090;49.770;18.760;2023-08-20T12:50:29;8.10;;;7.30;;
75512;SDS011;64090;49.770;18.760;2023-08-20T12:53:32;8.10;;;7.40;;
75512;SDS011;64090;49.770;18.760;2023-08-20T12:56:37;8.30;;;7.20;;
75512;SDS011;64090;49.770;18.760;2023-08-20T12:59:41;9.10;;;7.90;;
75512;SDS011;64090;49.770;18.760;2023-08-20T13:03:08;8.20;;;7.40;;
75512;SDS011;64090;49.770;18.760;2023-08-20T13:06:14;8.20;;;7.40;;
75512;SDS011;64090;49.770;18.760;2023-08-20T13:09:44;8.10;;;7.20;;
75512;SDS011;64090;49.770;18.760;2023-08-20T13:12:50;7.50;;;6.60;;
75512;SDS011;64090;49.770;18.760;2023-08-20T13:16:14;7.20;;;6.60;;
75512;SDS011;64090;49.770;18.760;2023-08-20T13:19:16;7.40;;;6.70;;
75512;SDS011;64090;49.770;18.760;2023-08-20T13:22:40;7.10;;;6.50;;
75512;SDS011;64090;49.770;18.760;2023-08-20T13:25:53;7.80;;;6.80;;
75512;SDS011;64090;49.770;18.760;2023-08-20T13:29:17;7.90;;;7.10;;
75512;SDS011;64090;49.770;18.760;2023-08-20T13:32:40;8.20;;;7.40;;
75512;SDS011;64090;49.770;18.760;2023-08-20T13:35:44;7.20;;;6.50;;
75512;SDS011;64090;49.770;18.760;2023-08-20T13:38:51;5.80;;;5.30;;
75512;SDS011;64090;49.770;18.760;2023-08-20T13:42:13;6.80;;;6.20;;
75512;SDS011;64090;49.770;18.760;2023-08-20T13:45:39;6.60;;;6.00;;
75512;SDS011;64090;49.770;18.760;2023-08-20T13:48:43;7.10;;;5.90;;
75512;SDS011;64090;49.770;18.760;2023-08-20T13:51:45;6.80;;;6.10;;
75512;SDS011;64090;49.770;18.760;2023-08-20T13:54:48;6.50;;;5.90;;
75512;SDS011;64090;49.770;18.760;2023-08-20T13:58:20;6.90;;;6.10;;
75512;SDS011;64090;49.770;18.760;2023-08-20T14:01:41;6.00;;;5.30;;
75512;SDS011;64090;49.770;18.760;2023-08-20T14:04:58;6.30;;;5.20;;
75512;SDS011;64090;49.770;18.760;2023-08-20T14:08:21;5.90;;;5.30;;
75512;SDS011;64090;49.770;18.760;2023-08-20T14:11:45;6.80;;;6.10;;
75512;SDS011;64090;49.770;18.760;2023-08-20T14:15:07;7.70;;;7.00;;
75512;SDS011;64090;49.770;18.760;2023-08-20T14:18:31;6.60;;;5.90;;
75512;SDS011;64090;49.770;18.760;2023-08-20T14:21:37;6.40;;;5.80;;
75512;SDS011;64090;49.770;18.760;2023-08-20T14:25:04;6.30;;;5.70;;
75512;SDS011;64090;49.770;18.760;2023-08-20T14:28:11;6.70;;;6.00;;
75512;SDS011;64090;49.770;18.760;2023-08-20T14:31:39;6.40;;;5.80;;
75512;SDS011;64090;49.770;18.760;2023-08-20T14:34:43;5.70;;;5.10;;
75512;SDS011;64090;49.770;18.760;2023-08-20T14:38:08;7.20;;;6.50;;
75512;SDS011;64090;49.770;18.760;2023-08-20T14:41:14;6.30;;;5.70;;
75512;SDS011;64090;49.770;18.760;2023-08-20T14:44:24;6.20;;;5.60;;
75512;SDS011;64090;49.770;18.760;2023-08-20T14:47:46;6.40;;;5.40;;
75512;SDS011;64090;49.770;18.760;2023-08-20T14:51:12;7.50;;;6.50;;
75512;SDS011;64090;49.770;18.760;2023-08-20T14:54:34;9.60;;;8.70;;
75512;SDS011;64090;49.770;18.760;2023-08-20T14:57:58;6.60;;;6.00;;
75512;SDS011;64090;49.770;18.760;2023-08-20T15:01:20;6.90;;;6.30;;
75512;SDS011;64090;49.770;18.760;2023-08-20T15:04:43;6.80;;;6.10;;
75512;SDS011;64090;49.770;18.760;2023-08-20T15:08:06;7.10;;;6.40;;
75512;SDS011;64090;49.770;18.760;2023-08-20T15:11:34;7.20;;;6.20;;
75512;SDS011;64090;49.770;18.760;2023-08-20T15:14:58;7.10;;;6.40;;
75512;SDS011;64090;49.770;18.760;2023-08-20T15:18:05;8.20;;;6.30;;
75512;SDS011;64090;49.770;18.760;2023-08-20T15:21:27;7.40;;;6.70;;
75512;SDS011;64090;49.770;18.760;2023-08-20T15:28:16;8.20;;;7.40;;
75512;SDS011;64090;49.770;18.760;2023-08-20T15:31:36;7.90;;;7.20;;
75512;SDS011;64090;49.770;18.760;2023-08-20T15:35:01;10.20;;;7.50;;
75512;SDS011;64090;49.770;18.760;2023-08-20T15:38:24;8.80;;;8.00;;
75512;SDS011;64090;49.770;18.760;2023-08-20T15:41:51;7.60;;;6.80;;
75512;SDS011;64090;49.770;18.760;2023-08-20T15:44:57;7.60;;;6.80;;
75512;SDS011;64090;49.770;18.760;2023-08-20T15:48:22;8.30;;;7.50;;
75512;SDS011;64090;49.770;18.760;2023-08-20T15:51:44;9.20;;;8.30;;
75512;SDS011;64090;49.770;18.760;2023-08-20T15:54:48;9.50;;;7.10;;
75512;SDS011;64090;49.770;18.760;2023-08-20T15:58:10;8.20;;;7.40;;
75512;SDS011;64090;49.770;18.760;2023-08-20T16:01:33;8.50;;;7.50;;
75512;SDS011;64090;49.770;18.760;2023-08-20T16:05:01;8.30;;;7.40;;
75512;SDS011;64090;49.770;18.760;2023-08-20T16:08:08;9.40;;;8.50;;
75512;SDS011;64090;49.770;18.760;2023-08-20T16:11:34;9.70;;;8.60;;
75512;SDS011;64090;49.770;18.760;2023-08-20T16:15:14;9.30;;;8.30;;
75512;SDS011;64090;49.770;18.760;2023-08-20T16:18:51;9.60;;;8.60;;
75512;SDS011;64090;49.770;18.760;2023-08-20T16:22:08;10.40;;;9.50;;
75512;SDS011;64090;49.770;18.760;2023-08-20T16:25:15;10.30;;;9.30;;
75512;SDS011;64090;49.770;18.760;2023-08-20T16:28:39;9.90;;;8.90;;
75512;SDS011;64090;49.770;18.760;2023-08-20T16:31:56;9.60;;;8.60;;
75512;SDS011;64090;49.770;18.760;2023-08-20T16:35:02;10.30;;;8.90;;
75512;SDS011;64090;49.770;18.760;2023-08-20T16:38:24;10.20;;;8.80;;
75512;SDS011;64090;49.770;18.760;2023-08-20T16:41:28;10.90;;;8.90;;
75512;SDS011;64090;49.770;18.760;2023-08-20T16:45:12;9.60;;;8.60;;
75512;SDS011;64090;49.770;18.760;2023-08-20T16:48:34;9.70;;;8.30;;
75512;SDS011;64090;49.770;18.760;2023-08-20T16:51:39;10.80;;;9.20;;
75512;SDS011;64090;49.770;18.760;2023-08-20T16:54:45;10.00;;;7.80;;
75512;SDS011;64090;49.770;18.760;2023-08-20T16:58:25;14.00;;;8.00;;
75512;SDS011;64090;49.770;18.760;2023-08-20T17:01:30;9.10;;;7.20;;
75512;SDS011;64090;49.770;18.760;2023-08-20T17:04:40;11.40;;;7.50;;
75512;SDS011;64090;49.770;18.760;2023-08-20T17:07:44;14.00;;;8.20;;
75512;SDS011;64090;49.770;18.760;2023-08-20T17:11:09;11.40;;;7.70;;
75512;SDS011;64090;49.770;18.760;2023-08-20T17:14:21;11.70;;;7.80;;
75512;SDS011;64090;49.770;18.760;2023-08-20T17:17:28;9.70;;;8.10;;
75512;SDS011;64090;49.770;18.760;2023-08-20T17:24:15;12.80;;;8.20;;
75512;SDS011;64090;49.770;18.760;2023-08-20T17:27:18;10.80;;;8.10;;
75512;SDS011;64090;49.770;18.760;2023-08-20T17:30:37;11.50;;;8.70;;
75512;SDS011;64090;49.770;18.760;2023-08-20T17:34:00;11.20;;;8.00;;
75512;SDS011;64090;49.770;18.760;2023-08-20T17:37:06;12.50;;;7.70;;
75512;SDS011;64090;49.770;18.760;2023-08-20T17:40:30;9.30;;;7.80;;
75512;SDS011;64090;49.770;18.760;2023-08-20T17:44:00;11.60;;;7.60;;
75512;SDS011;64090;49.770;18.760;2023-08-20T17:47:08;10.70;;;7.10;;
75512;SDS011;64090;49.770;18.760;2023-08-20T17:50:36;7.90;;;6.70;;
75512;SDS011;64090;49.770;18.760;2023-08-20T17:54:01;9.30;;;8.40;;
75512;SDS011;64090;49.770;18.760;2023-08-20T17:57:20;8.70;;;7.80;;
75512;SDS011;64090;49.770;18.760;2023-08-20T18:00:51;8.20;;;6.80;;
75512;SDS011;64090;49.770;18.760;2023-08-20T18:04:15;7.90;;;7.00;;
75512;SDS011;64090;49.770;18.760;2023-08-20T18:07:38;11.30;;;9.20;;
75512;SDS011;64090;49.770;18.760;2023-08-20T18:11:10;22.20;;;19.70;;
75512;SDS011;64090;49.770;18.760;2023-08-20T18:14:47;12.40;;;11.00;;
75512;SDS011;64090;49.770;18.760;2023-08-20T18:18:10;12.10;;;9.70;;
75512;SDS011;64090;49.770;18.760;2023-08-20T18:21:20;11.30;;;10.20;;
75512;SDS011;64090;49.770;18.760;2023-08-20T18:24:42;11.70;;;10.50;;
75512;SDS011;64090;49.770;18.760;2023-08-20T18:27:52;13.30;;;11.20;;
75512;SDS011;64090;49.770;18.760;2023-08-20T18:31:15;15.70;;;11.00;;
75512;SDS011;64090;49.770;18.760;2023-08-20T18:34:57;14.30;;;12.80;;
75512;SDS011;64090;49.770;18.760;2023-08-20T18:38:40;13.60;;;12.20;;
75512;SDS011;64090;49.770;18.760;2023-08-20T18:42:06;14.10;;;11.80;;
75512;SDS011;64090;49.770;18.760;2023-08-20T18:45:24;15.40;;;13.30;;
75512;SDS011;64090;49.770;18.760;2023-08-20T18:48:50;15.10;;;13.60;;
75512;SDS011;64090;49.770;18.760;2023-08-20T18:52:12;13.00;;;11.60;;
75512;SDS011;64090;49.770;18.760;2023-08-20T18:55:49;13.50;;;11.00;;
75512;SDS011;64090;49.770;18.760;2023-08-20T18:59:42;16.60;;;13.50;;
75512;SDS011;64090;49.770;18.760;2023-08-20T19:02:46;15.80;;;13.80;;
75512;SDS011;64090;49.770;18.760;2023-08-20T19:06:05;13.40;;;11.70;;
75512;SDS011;64090;49.770;18.760;2023-08-20T19:13:09;12.60;;;10.70;;
75512;SDS011;64090;49.770;18.760;2023-08-20T19:16:35;13.80;;;11.90;;
75512;SDS011;64090;49.770;18.760;2023-08-20T19:19:58;13.50;;;11.60;;
75512;SDS011;64090;49.770;18.760;2023-08-20T19:23:10;12.30;;;10.80;;
75512;SDS011;64090;49.770;18.760;2023-08-20T19:26:49;12.50;;;10.80;;
75512;SDS011;64090;49.770;18.760;2023-08-20T19:30:07;11.70;;;10.50;;
75512;SDS011;64090;49.770;18.760;2023-08-20T19:33:35;10.00;;;9.00;;
75512;SDS011;64090;49.770;18.760;2023-08-20T19:36:56;15.40;;;13.00;;
75512;SDS011;64090;49.770;18.760;2023-08-20T19:40:28;13.80;;;10.80;;
75512;SDS011;64090;49.770;18.760;2023-08-20T19:43:58;11.70;;;9.70;;
75512;SDS011;64090;49.770;18.760;2023-08-20T19:47:39;12.50;;;9.60;;
75512;SDS011;64090;49.770;18.760;2023-08-20T19:51:00;11.00;;;9.90;;
75512;SDS011;64090;49.770;18.760;2023-08-20T19:54:22;10.60;;;9.30;;
75512;SDS011;64090;49.770;18.760;2023-08-20T19:58:04;13.10;;;10.60;;
75512;SDS011;64090;49.770;18.760;2023-08-20T20:01:09;11.90;;;9.70;;
75512;SDS011;64090;49.770;18.760;2023-08-20T20:04:29;13.20;;;10.00;;
75512;SDS011;64090;49.770;18.760;2023-08-20T20:08:19;11.60;;;10.40;;
75512;SDS011;64090;49.770;18.760;2023-08-20T20:11:48;14.80;;;12.10;;
75512;SDS011;64090;49.770;18.760;2023-08-20T20:15:00;15.60;;;11.90;;
75512;SDS011;64090;49.770;18.760;2023-08-20T20:18:30;12.50;;;10.00;;
75512;SDS011;64090;49.770;18.760;2023-08-20T20:21:48;13.50;;;10.80;;
75512;SDS011;64090;49.770;18.760;2023-08-20T20:25:12;12.00;;;10.20;;
75512;SDS011;64090;49.770;18.760;2023-08-20T20:28:38;14.20;;;11.80;;